sensor_id;sensor_type;location;lat;lon;timestamp;P1;durP1;ratioP1;P2;durP2;ratioP2
64795;SDS011;51229;51.980;6.722;2023-02-28T00:00:49;11.90;;;8.20;;
64795;SDS011;51229;51.980;6.722;2023-02-28T00:03:15;12.25;;;7.82;;
64795;SDS011;51229;51.980;6.722;2023-02-28T00:05:41;13.35;;;8.02;;
64795;SDS011;51229;51.980;6.722;2023-02-28T00:08:07;13.52;;;8.63;;
64795;SDS011;51229;51.980;6.722;2023-02-28T00:10:33;11.68;;;8.30;;
64795;SDS011;51229;51.980;6.722;2023-02-28T00:13:01;13.73;;;8.30;;
64795;SDS011;51229;51.980;6.722;2023-02-28T00:15:29;16.77;;;8.68;;
64795;SDS011;51229;51.980;6.722;2023-02-28T00:17:55;15.20;;;8.93;;
64795;SDS011;51229;51.980;6.722;2023-02-28T00:20:21;16.45;;;8.50;;
64795;SDS011;51229;51.980;6.722;2023-02-28T00:22:47;12.02;;;8.07;;
64795;SDS011;51229;51.980;6.722;2023-02-28T00:25:15;13.52;;;8.63;;
64795;SDS011;51229;51.980;6.722;2023-02-28T00:27:43;12.88;;;8.10;;
64795;SDS011;51229;51.980;6.722;2023-02-28T00:30:13;15.32;;;8.00;;
64795;SDS011;51229;51.980;6.722;2023-02-28T00:32:40;14.27;;;8.95;;
64795;SDS011;51229;51.980;6.722;2023-02-28T00:35:06;13.93;;;8.57;;
64795;SDS011;51229;51.980;6.722;2023-02-28T00:37:33;15.48;;;8.50;;
64795;SDS011;51229;51.980;6.722;2023-02-28T00:39:59;17.58;;;9.13;;
64795;SDS011;51229;51.980;6.722;2023-02-28T00:42:25;12.52;;;8.13;;
64795;SDS011;51229;51.980;6.722;2023-02-28T00:44:51;16.48;;;8.95;;
64795;SDS011;51229;51.980;6.722;2023-02-28T00:47:17;15.38;;;8.75;;
64795;SDS011;51229;51.980;6.722;2023-02-28T00:49:43;12.55;;;7.80;;
64795;SDS011;51229;51.980;6.722;2023-02-28T00:52:09;13.23;;;8.00;;
64795;SDS011;51229;51.980;6.722;2023-02-28T00:54:35;12.88;;;8.40;;
64795;SDS011;51229;51.980;6.722;2023-02-28T00:57:00;12.60;;;8.80;;
64795;SDS011;51229;51.980;6.722;2023-02-28T00:59:26;14.13;;;8.18;;
64795;SDS011;51229;51.980;6.722;2023-02-28T01:01:52;13.65;;;8.27;;
64795;SDS011;51229;51.980;6.722;2023-02-28T01:04:18;14.27;;;8.80;;
64795;SDS011;51229;51.980;6.722;2023-02-28T01:06:43;13.88;;;8.45;;
64795;SDS011;51229;51.980;6.722;2023-02-28T01:09:09;16.23;;;8.30;;
64795;SDS011;51229;51.980;6.722;2023-02-28T01:11:36;15.05;;;8.77;;
64795;SDS011;51229;51.980;6.722;2023-02-28T01:14:02;16.13;;;8.80;;
64795;SDS011;51229;51.980;6.722;2023-02-28T01:16:29;15.25;;;8.10;;
64795;SDS011;51229;51.980;6.722;2023-02-28T01:18:55;13.52;;;8.07;;
64795;SDS011;51229;51.980;6.722;2023-02-28T01:21:22;13.45;;;7.95;;
64795;SDS011;51229;51.980;6.722;2023-02-28T01:23:48;15.40;;;8.70;;
64795;SDS011;51229;51.980;6.722;2023-02-28T01:26:15;12.60;;;7.90;;
64795;SDS011;51229;51.980;6.722;2023-02-28T01:28:43;13.30;;;7.55;;
64795;SDS011;51229;51.980;6.722;2023-02-28T01:31:09;14.07;;;8.02;;
64795;SDS011;51229;51.980;6.722;2023-02-28T01:33:37;11.82;;;7.57;;
64795;SDS011;51229;51.980;6.722;2023-02-28T01:36:07;13.23;;;7.45;;
64795;SDS011;51229;51.980;6.722;2023-02-28T01:38:38;12.27;;;7.85;;
64795;SDS011;51229;51.980;6.722;2023-02-28T01:41:05;14.00;;;8.35;;
64795;SDS011;51229;51.980;6.722;2023-02-28T01:43:39;12.57;;;8.00;;
64795;SDS011;51229;51.980;6.722;2023-02-28T01:46:28;14.30;;;8.35;;
64795;SDS011;51229;51.980;6.722;2023-02-28T01:51:42;12.82;;;7.68;;
64795;SDS011;51229;51.980;6.722;2023-02-28T01:54:16;15.75;;;8.07;;
64795;SDS011;51229;51.980;6.722;2023-02-28T01:56:49;12.63;;;8.05;;
64795;SDS011;51229;51.980;6.722;2023-02-28T01:59:27;11.38;;;7.82;;
64795;SDS011;51229;51.980;6.722;2023-02-28T02:02:04;13.07;;;8.07;;
64795;SDS011;51229;51.980;6.722;2023-02-28T02:04:36;11.68;;;8.10;;
64795;SDS011;51229;51.980;6.722;2023-02-28T02:07:05;12.60;;;7.80;;
64795;SDS011;51229;51.980;6.722;2023-02-28T02:09:31;13.27;;;7.70;;
64795;SDS011;51229;51.980;6.722;2023-02-28T02:11:56;11.98;;;7.30;;
64795;SDS011;51229;51.980;6.722;2023-02-28T02:14:32;11.70;;;7.25;;
64795;SDS011;51229;51.980;6.722;2023-02-28T02:17:16;12.18;;;7.70;;
64795;SDS011;51229;51.980;6.722;2023-02-28T02:25:45;13.18;;;8.05;;
64795;SDS011;51229;51.980;6.722;2023-02-28T02:28:22;11.80;;;7.30;;
64795;SDS011;51229;51.980;6.722;2023-02-28T02:39:48;13.82;;;7.43;;
64795;SDS011;51229;51.980;6.722;2023-02-28T02:42:24;12.02;;;7.10;;
64795;SDS011;51229;51.980;6.722;2023-02-28T02:45:04;12.15;;;7.78;;
64795;SDS011;51229;51.980;6.722;2023-02-28T02:47:34;15.70;;;8.05;;
64795;SDS011;51229;51.980;6.722;2023-02-28T02:50:03;12.23;;;7.72;;
64795;SDS011;51229;51.980;6.722;2023-02-28T02:52:34;15.40;;;7.78;;
64795;SDS011;51229;51.980;6.722;2023-02-28T02:55:05;12.20;;;7.55;;
64795;SDS011;51229;51.980;6.722;2023-02-28T03:00:20;15.75;;;7.60;;
64795;SDS011;51229;51.980;6.722;2023-02-28T03:02:51;11.45;;;7.85;;
64795;SDS011;51229;51.980;6.722;2023-02-28T03:05:30;13.18;;;7.63;;
64795;SDS011;51229;51.980;6.722;2023-02-28T03:08:02;12.32;;;7.40;;
64795;SDS011;51229;51.980;6.722;2023-02-28T03:24:43;11.07;;;7.28;;
64795;SDS011;51229;51.980;6.722;2023-02-28T03:27:19;13.68;;;7.18;;
64795;SDS011;51229;51.980;6.722;2023-02-28T03:30:00;12.45;;;7.38;;
64795;SDS011;51229;51.980;6.722;2023-02-28T03:32:42;12.25;;;7.57;;
64795;SDS011;51229;51.980;6.722;2023-02-28T03:35:23;11.05;;;6.78;;
64795;SDS011;51229;51.980;6.722;2023-02-28T03:37:55;13.32;;;7.07;;
64795;SDS011;51229;51.980;6.722;2023-02-28T03:40:27;12.25;;;6.95;;
64795;SDS011;51229;51.980;6.722;2023-02-28T03:42:59;12.82;;;7.00;;
64795;SDS011;51229;51.980;6.722;2023-02-28T03:45:28;12.93;;;7.63;;
64795;SDS011;51229;51.980;6.722;2023-02-28T03:48:01;14.15;;;7.32;;
64795;SDS011;51229;51.980;6.722;2023-02-28T03:50:41;13.07;;;7.25;;
64795;SDS011;51229;51.980;6.722;2023-02-28T03:53:24;11.32;;;7.50;;
64795;SDS011;51229;51.980;6.722;2023-02-28T03:55:54;11.95;;;6.75;;
64795;SDS011;51229;51.980;6.722;2023-02-28T04:01:35;10.43;;;6.00;;
64795;SDS011;51229;51.980;6.722;2023-02-28T04:04:07;10.97;;;6.60;;
64795;SDS011;51229;51.980;6.722;2023-02-28T04:06:34;10.45;;;6.50;;
64795;SDS011;51229;51.980;6.722;2023-02-28T04:09:00;10.38;;;6.63;;
64795;SDS011;51229;51.980;6.722;2023-02-28T04:11:41;11.48;;;6.80;;
64795;SDS011;51229;51.980;6.722;2023-02-28T04:14:10;11.75;;;6.63;;
64795;SDS011;51229;51.980;6.722;2023-02-28T04:16:37;8.85;;;5.60;;
64795;SDS011;51229;51.980;6.722;2023-02-28T04:19:05;12.57;;;6.28;;
64795;SDS011;51229;51.980;6.722;2023-02-28T04:21:36;10.80;;;5.75;;
64795;SDS011;51229;51.980;6.722;2023-02-28T04:24:10;12.63;;;6.45;;
64795;SDS011;51229;51.980;6.722;2023-02-28T04:26:42;12.20;;;6.22;;
64795;SDS011;51229;51.980;6.722;2023-02-28T04:29:10;11.45;;;6.43;;
64795;SDS011;51229;51.980;6.722;2023-02-28T04:31:38;11.35;;;6.25;;
64795;SDS011;51229;51.980;6.722;2023-02-28T04:34:04;11.70;;;6.40;;
64795;SDS011;51229;51.980;6.722;2023-02-28T04:36:30;9.43;;;5.68;;
64795;SDS011;51229;51.980;6.722;2023-02-28T04:38:56;11.85;;;6.63;;
64795;SDS011;51229;51.980;6.722;2023-02-28T04:41:22;11.25;;;6.43;;
64795;SDS011;51229;51.980;6.722;2023-02-28T04:43:48;12.27;;;6.43;;
64795;SDS011;51229;51.980;6.722;2023-02-28T04:46:16;10.45;;;6.20;;
64795;SDS011;51229;51.980;6.722;2023-02-28T04:48:43;10.95;;;6.10;;
64795;SDS011;51229;51.980;6.722;2023-02-28T04:51:10;10.95;;;6.07;;
64795;SDS011;51229;51.980;6.722;2023-02-28T04:53:37;9.63;;;5.65;;
64795;SDS011;51229;51.980;6.722;2023-02-28T04:56:04;11.23;;;6.28;;
64795;SDS011;51229;51.980;6.722;2023-02-28T04:58:31;8.88;;;6.10;;
64795;SDS011;51229;51.980;6.722;2023-02-28T05:01:04;10.63;;;5.97;;
64795;SDS011;51229;51.980;6.722;2023-02-28T05:03:51;8.77;;;5.40;;
64795;SDS011;51229;51.980;6.722;2023-02-28T05:06:19;11.18;;;5.72;;
64795;SDS011;51229;51.980;6.722;2023-02-28T05:08:45;10.15;;;6.40;;
64795;SDS011;51229;51.980;6.722;2023-02-28T05:11:21;11.82;;;5.90;;
64795;SDS011;51229;51.980;6.722;2023-02-28T05:13:50;11.52;;;6.10;;
64795;SDS011;51229;51.980;6.722;2023-02-28T05:16:16;12.02;;;6.38;;
64795;SDS011;51229;51.980;6.722;2023-02-28T05:18:42;10.55;;;5.80;;
64795;SDS011;51229;51.980;6.722;2023-02-28T05:21:31;10.10;;;5.78;;
64795;SDS011;51229;51.980;6.722;2023-02-28T05:23:56;8.38;;;5.00;;
64795;SDS011;51229;51.980;6.722;2023-02-28T05:26:25;10.30;;;6.03;;
64795;SDS011;51229;51.980;6.722;2023-02-28T05:28:52;8.35;;;5.63;;
64795;SDS011;51229;51.980;6.722;2023-02-28T05:31:18;12.07;;;6.20;;
64795;SDS011;51229;51.980;6.722;2023-02-28T05:33:44;8.95;;;5.45;;
64795;SDS011;51229;51.980;6.722;2023-02-28T05:36:10;9.90;;;5.53;;
64795;SDS011;51229;51.980;6.722;2023-02-28T05:38:36;10.23;;;5.38;;
64795;SDS011;51229;51.980;6.722;2023-02-28T05:41:08;8.57;;;5.60;;
64795;SDS011;51229;51.980;6.722;2023-02-28T05:43:36;10.68;;;5.43;;
64795;SDS011;51229;51.980;6.722;2023-02-28T05:46:05;8.88;;;5.22;;
64795;SDS011;51229;51.980;6.722;2023-02-28T05:48:32;9.25;;;5.40;;
64795;SDS011;51229;51.980;6.722;2023-02-28T05:50:59;9.98;;;4.82;;
64795;SDS011;51229;51.980;6.722;2023-02-28T05:53:25;7.32;;;4.57;;
64795;SDS011;51229;51.980;6.722;2023-02-28T05:55:51;9.15;;;5.55;;
64795;SDS011;51229;51.980;6.722;2023-02-28T05:58:17;8.60;;;4.88;;
64795;SDS011;51229;51.980;6.722;2023-02-28T06:00:43;10.70;;;5.20;;
64795;SDS011;51229;51.980;6.722;2023-02-28T06:03:09;9.85;;;5.65;;
64795;SDS011;51229;51.980;6.722;2023-02-28T06:05:35;8.68;;;4.95;;
64795;SDS011;51229;51.980;6.722;2023-02-28T06:08:00;7.82;;;4.88;;
64795;SDS011;51229;51.980;6.722;2023-02-28T06:10:26;9.13;;;5.32;;
64795;SDS011;51229;51.980;6.722;2023-02-28T06:12:52;9.27;;;5.45;;
64795;SDS011;51229;51.980;6.722;2023-02-28T06:15:17;7.45;;;5.03;;
64795;SDS011;51229;51.980;6.722;2023-02-28T06:17:43;10.85;;;5.15;;
64795;SDS011;51229;51.980;6.722;2023-02-28T06:20:10;10.40;;;5.22;;
64795;SDS011;51229;51.980;6.722;2023-02-28T06:22:38;9.00;;;4.70;;
64795;SDS011;51229;51.980;6.722;2023-02-28T06:25:05;9.25;;;5.25;;
64795;SDS011;51229;51.980;6.722;2023-02-28T06:27:31;10.25;;;5.13;;
64795;SDS011;51229;51.980;6.722;2023-02-28T06:29:58;12.70;;;5.30;;
64795;SDS011;51229;51.980;6.722;2023-02-28T06:32:23;8.35;;;5.22;;
64795;SDS011;51229;51.980;6.722;2023-02-28T06:34:49;11.07;;;5.25;;
64795;SDS011;51229;51.980;6.722;2023-02-28T06:37:15;9.23;;;4.97;;
64795;SDS011;51229;51.980;6.722;2023-02-28T06:39:42;9.07;;;5.25;;
64795;SDS011;51229;51.980;6.722;2023-02-28T06:42:08;10.00;;;5.25;;
64795;SDS011;51229;51.980;6.722;2023-02-28T06:47:44;8.85;;;5.45;;
64795;SDS011;51229;51.980;6.722;2023-02-28T06:50:11;9.32;;;5.85;;
64795;SDS011;51229;51.980;6.722;2023-02-28T06:52:37;10.00;;;5.63;;
64795;SDS011;51229;51.980;6.722;2023-02-28T06:55:04;11.00;;;6.28;;
64795;SDS011;51229;51.980;6.722;2023-02-28T06:57:32;8.73;;;5.50;;
64795;SDS011;51229;51.980;6.722;2023-02-28T06:59:59;10.40;;;5.63;;
64795;SDS011;51229;51.980;6.722;2023-02-28T07:02:30;11.70;;;5.63;;
64795;SDS011;51229;51.980;6.722;2023-02-28T07:04:56;9.27;;;5.65;;
64795;SDS011;51229;51.980;6.722;2023-02-28T07:07:22;8.68;;;5.47;;
64795;SDS011;51229;51.980;6.722;2023-02-28T07:09:48;9.85;;;5.40;;
64795;SDS011;51229;51.980;6.722;2023-02-28T07:12:13;9.77;;;5.50;;
64795;SDS011;51229;51.980;6.722;2023-02-28T07:14:39;10.68;;;5.18;;
64795;SDS011;51229;51.980;6.722;2023-02-28T07:17:06;10.70;;;6.03;;
64795;SDS011;51229;51.980;6.722;2023-02-28T07:19:32;11.75;;;5.35;;
64795;SDS011;51229;51.980;6.722;2023-02-28T07:21:58;9.35;;;5.32;;
64795;SDS011;51229;51.980;6.722;2023-02-28T07:24:24;9.82;;;4.95;;
64795;SDS011;51229;51.980;6.722;2023-02-28T07:26:53;10.60;;;5.13;;
64795;SDS011;51229;51.980;6.722;2023-02-28T07:29:19;7.30;;;4.78;;
64795;SDS011;51229;51.980;6.722;2023-02-28T07:31:44;10.52;;;5.50;;
64795;SDS011;51229;51.980;6.722;2023-02-28T07:34:11;8.65;;;5.22;;
64795;SDS011;51229;51.980;6.722;2023-02-28T07:36:38;8.93;;;5.20;;
64795;SDS011;51229;51.980;6.722;2023-02-28T07:39:03;8.68;;;4.95;;
64795;SDS011;51229;51.980;6.722;2023-02-28T07:41:29;9.73;;;5.30;;
64795;SDS011;51229;51.980;6.722;2023-02-28T07:43:58;9.35;;;4.72;;
64795;SDS011;51229;51.980;6.722;2023-02-28T07:46:27;8.80;;;4.97;;
64795;SDS011;51229;51.980;6.722;2023-02-28T07:48:54;7.28;;;4.45;;
64795;SDS011;51229;51.980;6.722;2023-02-28T07:51:24;7.05;;;4.28;;
64795;SDS011;51229;51.980;6.722;2023-02-28T07:53:50;7.78;;;4.40;;
64795;SDS011;51229;51.980;6.722;2023-02-28T07:56:15;8.20;;;4.75;;
64795;SDS011;51229;51.980;6.722;2023-02-28T07:58:41;8.25;;;4.60;;
64795;SDS011;51229;51.980;6.722;2023-02-28T08:01:07;10.43;;;4.97;;
64795;SDS011;51229;51.980;6.722;2023-02-28T08:03:34;7.70;;;4.50;;
64795;SDS011;51229;51.980;6.722;2023-02-28T08:06:05;7.88;;;4.72;;
64795;SDS011;51229;51.980;6.722;2023-02-28T08:08:32;8.43;;;4.60;;
64795;SDS011;51229;51.980;6.722;2023-02-28T08:10:59;7.25;;;4.20;;
64795;SDS011;51229;51.980;6.722;2023-02-28T08:13:26;8.43;;;4.15;;
64795;SDS011;51229;51.980;6.722;2023-02-28T08:15:52;7.35;;;4.40;;
64795;SDS011;51229;51.980;6.722;2023-02-28T08:18:20;6.38;;;3.40;;
64795;SDS011;51229;51.980;6.722;2023-02-28T08:20:46;6.55;;;3.83;;
64795;SDS011;51229;51.980;6.722;2023-02-28T08:23:12;6.95;;;3.97;;
64795;SDS011;51229;51.980;6.722;2023-02-28T08:25:38;7.03;;;3.30;;
64795;SDS011;51229;51.980;6.722;2023-02-28T08:28:04;5.47;;;3.10;;
64795;SDS011;51229;51.980;6.722;2023-02-28T08:30:30;7.30;;;3.72;;
64795;SDS011;51229;51.980;6.722;2023-02-28T08:32:56;5.18;;;3.25;;
64795;SDS011;51229;51.980;6.722;2023-02-28T08:35:21;6.93;;;3.47;;
64795;SDS011;51229;51.980;6.722;2023-02-28T08:37:48;4.97;;;3.17;;
64795;SDS011;51229;51.980;6.722;2023-02-28T08:40:16;6.30;;;2.92;;
64795;SDS011;51229;51.980;6.722;2023-02-28T08:42:45;6.45;;;3.20;;
64795;SDS011;51229;51.980;6.722;2023-02-28T08:45:11;5.63;;;2.72;;
64795;SDS011;51229;51.980;6.722;2023-02-28T08:47:38;4.68;;;2.70;;
64795;SDS011;51229;51.980;6.722;2023-02-28T08:50:05;5.85;;;2.63;;
64795;SDS011;51229;51.980;6.722;2023-02-28T08:52:31;4.45;;;2.22;;
64795;SDS011;51229;51.980;6.722;2023-02-28T08:54:57;5.65;;;2.30;;
64795;SDS011;51229;51.980;6.722;2023-02-28T08:57:23;4.55;;;2.25;;
64795;SDS011;51229;51.980;6.722;2023-02-28T08:59:51;5.22;;;2.17;;
64795;SDS011;51229;51.980;6.722;2023-02-28T09:02:17;6.90;;;2.35;;
64795;SDS011;51229;51.980;6.722;2023-02-28T09:04:43;4.40;;;2.47;;
64795;SDS011;51229;51.980;6.722;2023-02-28T09:07:10;3.63;;;2.13;;
64795;SDS011;51229;51.980;6.722;2023-02-28T09:09:36;3.45;;;2.22;;
64795;SDS011;51229;51.980;6.722;2023-02-28T09:12:02;6.68;;;2.83;;
64795;SDS011;51229;51.980;6.722;2023-02-28T09:14:28;4.20;;;2.35;;
64795;SDS011;51229;51.980;6.722;2023-02-28T09:16:54;4.22;;;2.30;;
64795;SDS011;51229;51.980;6.722;2023-02-28T09:19:20;3.72;;;2.13;;
64795;SDS011;51229;51.980;6.722;2023-02-28T09:21:45;3.33;;;2.00;;
64795;SDS011;51229;51.980;6.722;2023-02-28T09:24:11;4.55;;;2.47;;
64795;SDS011;51229;51.980;6.722;2023-02-28T09:26:39;3.50;;;1.73;;
64795;SDS011;51229;51.980;6.722;2023-02-28T09:29:05;4.85;;;2.35;;
64795;SDS011;51229;51.980;6.722;2023-02-28T09:31:31;4.35;;;2.17;;
64795;SDS011;51229;51.980;6.722;2023-02-28T09:33:58;3.13;;;1.90;;
64795;SDS011;51229;51.980;6.722;2023-02-28T09:36:24;6.55;;;3.28;;
64795;SDS011;51229;51.980;6.722;2023-02-28T09:38:51;4.03;;;2.25;;
64795;SDS011;51229;51.980;6.722;2023-02-28T09:43:57;2.55;;;1.38;;
64795;SDS011;51229;51.980;6.722;2023-02-28T09:48:57;3.08;;;1.80;;
64795;SDS011;51229;51.980;6.722;2023-02-28T09:54:01;4.07;;;2.00;;
64795;SDS011;51229;51.980;6.722;2023-02-28T09:56:37;3.63;;;2.00;;
64795;SDS011;51229;51.980;6.722;2023-02-28T09:59:10;4.05;;;2.20;;
64795;SDS011;51229;51.980;6.722;2023-02-28T10:01:57;4.07;;;1.80;;
64795;SDS011;51229;51.980;6.722;2023-02-28T10:10:25;4.43;;;2.50;;
64795;SDS011;51229;51.980;6.722;2023-02-28T10:12:55;3.88;;;2.28;;
64795;SDS011;51229;51.980;6.722;2023-02-28T10:15:24;4.07;;;2.42;;
64795;SDS011;51229;51.980;6.722;2023-02-28T10:20:51;4.45;;;2.53;;
64795;SDS011;51229;51.980;6.722;2023-02-28T10:23:24;5.22;;;2.67;;
64795;SDS011;51229;51.980;6.722;2023-02-28T10:26:13;4.13;;;2.50;;
64795;SDS011;51229;51.980;6.722;2023-02-28T10:28:41;5.03;;;3.00;;
64795;SDS011;51229;51.980;6.722;2023-02-28T10:31:12;6.22;;;2.95;;
64795;SDS011;51229;51.980;6.722;2023-02-28T10:33:42;4.88;;;2.70;;
64795;SDS011;51229;51.980;6.722;2023-02-28T10:36:10;5.50;;;2.70;;
64795;SDS011;51229;51.980;6.722;2023-02-28T10:38:43;3.95;;;2.30;;
64795;SDS011;51229;51.980;6.722;2023-02-28T10:41:32;4.05;;;2.40;;
64795;SDS011;51229;51.980;6.722;2023-02-28T10:44:14;4.50;;;2.38;;
64795;SDS011;51229;51.980;6.722;2023-02-28T10:46:47;5.47;;;2.45;;
64795;SDS011;51229;51.980;6.722;2023-02-28T10:49:22;6.00;;;2.83;;
64795;SDS011;51229;51.980;6.722;2023-02-28T10:51:54;5.45;;;2.78;;
64795;SDS011;51229;51.980;6.722;2023-02-28T10:54:27;3.63;;;2.00;;
64795;SDS011;51229;51.980;6.722;2023-02-28T10:57:16;2.97;;;1.70;;
64795;SDS011;51229;51.980;6.722;2023-02-28T10:59:44;4.60;;;1.70;;
64795;SDS011;51229;51.980;6.722;2023-02-28T11:02:36;3.83;;;1.77;;
64795;SDS011;51229;51.980;6.722;2023-02-28T11:05:24;4.05;;;1.65;;
64795;SDS011;51229;51.980;6.722;2023-02-28T11:07:57;3.55;;;1.80;;
64795;SDS011;51229;51.980;6.722;2023-02-28T11:10:31;2.80;;;1.52;;
64795;SDS011;51229;51.980;6.722;2023-02-28T11:12:59;3.05;;;1.70;;
64795;SDS011;51229;51.980;6.722;2023-02-28T11:15:28;3.60;;;1.65;;
64795;SDS011;51229;51.980;6.722;2023-02-28T11:20:43;3.75;;;1.60;;
64795;SDS011;51229;51.980;6.722;2023-02-28T11:23:14;2.80;;;1.45;;
64795;SDS011;51229;51.980;6.722;2023-02-28T11:25:45;2.92;;;1.50;;
64795;SDS011;51229;51.980;6.722;2023-02-28T11:31:05;3.42;;;1.67;;
64795;SDS011;51229;51.980;6.722;2023-02-28T11:33:42;3.15;;;1.30;;
64795;SDS011;51229;51.980;6.722;2023-02-28T11:36:14;3.47;;;1.80;;
64795;SDS011;51229;51.980;6.722;2023-02-28T11:38:41;3.45;;;1.70;;
64795;SDS011;51229;51.980;6.722;2023-02-28T11:41:15;4.20;;;1.63;;
64795;SDS011;51229;51.980;6.722;2023-02-28T11:57:09;3.33;;;1.85;;
64795;SDS011;51229;51.980;6.722;2023-02-28T12:00:17;3.05;;;1.65;;
64795;SDS011;51229;51.980;6.722;2023-02-28T12:16:52;3.60;;;2.08;;
64795;SDS011;51229;51.980;6.722;2023-02-28T12:19:20;3.58;;;1.80;;
64795;SDS011;51229;51.980;6.722;2023-02-28T12:22:04;3.33;;;1.92;;
64795;SDS011;51229;51.980;6.722;2023-02-28T12:27:39;3.83;;;1.70;;
64795;SDS011;51229;51.980;6.722;2023-02-28T12:30:27;4.00;;;2.00;;
64795;SDS011;51229;51.980;6.722;2023-02-28T12:35:28;3.78;;;2.15;;
64795;SDS011;51229;51.980;6.722;2023-02-28T12:38:33;3.38;;;2.03;;
64795;SDS011;51229;51.980;6.722;2023-02-28T12:41:04;3.67;;;1.90;;
64795;SDS011;51229;51.980;6.722;2023-02-28T12:43:37;3.15;;;1.90;;
64795;SDS011;51229;51.980;6.722;2023-02-28T12:46:12;3.85;;;1.98;;
64795;SDS011;51229;51.980;6.722;2023-02-28T12:48:49;3.13;;;1.85;;
64795;SDS011;51229;51.980;6.722;2023-02-28T12:51:18;3.88;;;2.20;;
64795;SDS011;51229;51.980;6.722;2023-02-28T12:57:18;5.13;;;2.20;;
64795;SDS011;51229;51.980;6.722;2023-02-28T13:04:39;4.53;;;2.28;;
64795;SDS011;51229;51.980;6.722;2023-02-28T13:10:38;4.18;;;2.40;;
64795;SDS011;51229;51.980;6.722;2023-02-28T13:13:11;3.28;;;2.00;;
64795;SDS011;51229;51.980;6.722;2023-02-28T13:15:40;3.75;;;2.30;;
64795;SDS011;51229;51.980;6.722;2023-02-28T13:18:32;4.55;;;2.20;;
64795;SDS011;51229;51.980;6.722;2023-02-28T13:21:02;5.05;;;2.50;;
64795;SDS011;51229;51.980;6.722;2023-02-28T13:26:12;3.05;;;2.13;;
64795;SDS011;51229;51.980;6.722;2023-02-28T13:31:16;4.90;;;2.45;;
64795;SDS011;51229;51.980;6.722;2023-02-28T13:38:43;4.13;;;2.13;;
64795;SDS011;51229;51.980;6.722;2023-02-28T13:44:02;3.88;;;2.40;;
64795;SDS011;51229;51.980;6.722;2023-02-28T13:46:30;4.10;;;2.60;;
64795;SDS011;51229;51.980;6.722;2023-02-28T13:49:23;3.78;;;2.30;;
64795;SDS011;51229;51.980;6.722;2023-02-28T13:52:02;4.53;;;2.22;;
64795;SDS011;51229;51.980;6.722;2023-02-28T14:00:28;3.72;;;2.08;;
64795;SDS011;51229;51.980;6.722;2023-02-28T14:11:46;3.92;;;2.60;;
64795;SDS011;51229;51.980;6.722;2023-02-28T14:14:57;4.65;;;2.20;;
64795;SDS011;51229;51.980;6.722;2023-02-28T14:17:04;3.80;;;2.10;;
64795;SDS011;51229;51.980;6.722;2023-02-28T14:19:32;3.70;;;2.20;;
64795;SDS011;51229;51.980;6.722;2023-02-28T14:22:16;3.95;;;2.55;;
64795;SDS011;51229;51.980;6.722;2023-02-28T14:27:38;3.80;;;2.50;;
64795;SDS011;51229;51.980;6.722;2023-02-28T14:33:27;4.10;;;2.63;;
64795;SDS011;51229;51.980;6.722;2023-02-28T14:36:21;5.80;;;2.63;;
64795;SDS011;51229;51.980;6.722;2023-02-28T14:38:52;4.43;;;2.50;;
64795;SDS011;51229;51.980;6.722;2023-02-28T14:41:34;5.03;;;2.60;;
64795;SDS011;51229;51.980;6.722;2023-02-28T14:44:14;4.97;;;2.65;;
64795;SDS011;51229;51.980;6.722;2023-02-28T14:46:42;3.33;;;2.10;;
64795;SDS011;51229;51.980;6.722;2023-02-28T14:49:13;3.35;;;2.20;;
64795;SDS011;51229;51.980;6.722;2023-02-28T14:52:03;3.88;;;2.63;;
64795;SDS011;51229;51.980;6.722;2023-02-28T14:54:42;6.35;;;2.80;;
64795;SDS011;51229;51.980;6.722;2023-02-28T15:00:11;4.40;;;2.67;;
64795;SDS011;51229;51.980;6.722;2023-02-28T15:02:49;4.30;;;2.30;;
64795;SDS011;51229;51.980;6.722;2023-02-28T15:07:41;4.35;;;2.58;;
64795;SDS011;51229;51.980;6.722;2023-02-28T15:13:30;4.00;;;2.60;;
64795;SDS011;51229;51.980;6.722;2023-02-28T15:18:14;3.75;;;2.58;;
64795;SDS011;51229;51.980;6.722;2023-02-28T15:21:06;4.93;;;3.30;;
64795;SDS011;51229;51.980;6.722;2023-02-28T15:23:34;4.95;;;3.30;;
64795;SDS011;51229;51.980;6.722;2023-02-28T15:26:01;4.68;;;2.67;;
64795;SDS011;51229;51.980;6.722;2023-02-28T15:28:27;5.47;;;2.97;;
64795;SDS011;51229;51.980;6.722;2023-02-28T15:31:01;5.60;;;2.72;;
64795;SDS011;51229;51.980;6.722;2023-02-28T15:33:30;4.50;;;2.97;;
64795;SDS011;51229;51.980;6.722;2023-02-28T15:36:10;4.80;;;3.10;;
64795;SDS011;51229;51.980;6.722;2023-02-28T15:38:39;4.60;;;2.80;;
64795;SDS011;51229;51.980;6.722;2023-02-28T15:41:05;6.20;;;2.92;;
64795;SDS011;51229;51.980;6.722;2023-02-28T15:43:36;5.97;;;3.20;;
64795;SDS011;51229;51.980;6.722;2023-02-28T15:48:50;4.97;;;3.00;;
64795;SDS011;51229;51.980;6.722;2023-02-28T15:51:38;4.63;;;2.88;;
64795;SDS011;51229;51.980;6.722;2023-02-28T15:54:05;5.13;;;3.28;;
64795;SDS011;51229;51.980;6.722;2023-02-28T15:56:46;5.80;;;2.90;;
64795;SDS011;51229;51.980;6.722;2023-02-28T15:59:18;5.72;;;3.00;;
64795;SDS011;51229;51.980;6.722;2023-02-28T16:01:46;5.10;;;3.13;;
64795;SDS011;51229;51.980;6.722;2023-02-28T16:04:26;5.03;;;2.92;;
64795;SDS011;51229;51.980;6.722;2023-02-28T16:09:24;5.63;;;3.25;;
64795;SDS011;51229;51.980;6.722;2023-02-28T16:11:52;3.95;;;2.35;;
64795;SDS011;51229;51.980;6.722;2023-02-28T16:14:20;4.68;;;3.10;;
64795;SDS011;51229;51.980;6.722;2023-02-28T16:16:50;4.63;;;2.42;;
64795;SDS011;51229;51.980;6.722;2023-02-28T16:19:17;4.43;;;3.08;;
64795;SDS011;51229;51.980;6.722;2023-02-28T16:21:44;4.90;;;3.53;;
64795;SDS011;51229;51.980;6.722;2023-02-28T16:24:10;5.43;;;3.08;;
64795;SDS011;51229;51.980;6.722;2023-02-28T16:26:35;4.85;;;3.25;;
64795;SDS011;51229;51.980;6.722;2023-02-28T16:29:04;4.78;;;3.28;;
64795;SDS011;51229;51.980;6.722;2023-02-28T16:31:31;4.57;;;2.90;;
64795;SDS011;51229;51.980;6.722;2023-02-28T16:34:00;5.15;;;3.15;;
64795;SDS011;51229;51.980;6.722;2023-02-28T16:36:26;4.88;;;2.90;;
64795;SDS011;51229;51.980;6.722;2023-02-28T16:38:53;4.85;;;2.92;;
64795;SDS011;51229;51.980;6.722;2023-02-28T16:41:26;5.97;;;3.17;;
64795;SDS011;51229;51.980;6.722;2023-02-28T16:43:55;4.78;;;3.30;;
64795;SDS011;51229;51.980;6.722;2023-02-28T16:46:26;4.80;;;2.92;;
64795;SDS011;51229;51.980;6.722;2023-02-28T16:48:55;4.32;;;2.65;;
64795;SDS011;51229;51.980;6.722;2023-02-28T16:51:21;6.03;;;3.28;;
64795;SDS011;51229;51.980;6.722;2023-02-28T16:53:47;5.15;;;3.15;;
64795;SDS011;51229;51.980;6.722;2023-02-28T16:58:45;6.80;;;4.40;;
64795;SDS011;51229;51.980;6.722;2023-02-28T17:01:12;7.80;;;3.60;;
64795;SDS011;51229;51.980;6.722;2023-02-28T17:03:38;6.32;;;3.65;;
64795;SDS011;51229;51.980;6.722;2023-02-28T17:06:05;7.07;;;4.60;;
64795;SDS011;51229;51.980;6.722;2023-02-28T17:08:37;6.65;;;5.18;;
64795;SDS011;51229;51.980;6.722;2023-02-28T17:11:03;7.35;;;4.90;;
64795;SDS011;51229;51.980;6.722;2023-02-28T17:13:29;7.75;;;5.05;;
64795;SDS011;51229;51.980;6.722;2023-02-28T17:15:54;6.55;;;3.58;;
64795;SDS011;51229;51.980;6.722;2023-02-28T17:18:21;6.40;;;4.82;;
64795;SDS011;51229;51.980;6.722;2023-02-28T17:20:47;8.35;;;5.57;;
64795;SDS011;51229;51.980;6.722;2023-02-28T17:23:13;8.30;;;4.22;;
64795;SDS011;51229;51.980;6.722;2023-02-28T17:25:38;8.13;;;5.43;;
64795;SDS011;51229;51.980;6.722;2023-02-28T17:28:04;8.25;;;5.00;;
64795;SDS011;51229;51.980;6.722;2023-02-28T17:30:30;7.43;;;4.55;;
64795;SDS011;51229;51.980;6.722;2023-02-28T17:32:58;6.78;;;5.07;;
64795;SDS011;51229;51.980;6.722;2023-02-28T17:35:24;8.40;;;5.50;;
64795;SDS011;51229;51.980;6.722;2023-02-28T17:37:51;7.45;;;5.10;;
64795;SDS011;51229;51.980;6.722;2023-02-28T17:40:22;8.07;;;5.50;;